createdAt,value
2018-04-23T00:01:41.256Z,51.43
2018-04-23T00:04:07.535Z,51.66
2018-04-23T00:06:33.811Z,51.72
2018-04-23T00:09:00.063Z,51.72
2018-04-23T00:11:26.261Z,51.76
2018-04-23T00:13:52.551Z,51.74
2018-04-23T00:16:18.855Z,51.67
2018-04-23T00:18:45.126Z,51.78
2018-04-23T00:21:11.319Z,51.96
2018-04-23T00:23:37.900Z,52.18
2018-04-23T00:26:04.406Z,51.95
2018-04-23T00:28:30.601Z,51.80
2018-04-23T00:30:56.771Z,51.69
2018-04-23T00:33:22.982Z,51.67
2018-04-23T00:35:49.180Z,51.60
2018-04-23T00:38:15.847Z,51.67
2018-04-23T00:40:42.038Z,51.72
2018-04-23T00:43:08.222Z,51.72
2018-04-23T00:45:34.512Z,51.61
2018-04-23T00:48:00.685Z,51.55
2018-04-23T00:50:27.058Z,51.49
2018-04-23T00:53:05.463Z,51.44
2018-04-23T00:55:31.758Z,51.43
2018-04-23T00:57:57.911Z,51.48
2018-04-23T01:00:24.143Z,51.52
2018-04-23T01:02:50.382Z,51.54
2018-04-23T01:05:16.622Z,51.60
2018-04-23T01:07:42.876Z,51.70
2018-04-23T01:10:09.465Z,51.82
2018-04-23T01:12:36.143Z,52.04
2018-04-23T01:15:02.347Z,52.43
2018-04-23T01:17:28.515Z,52.42
2018-04-23T01:19:55.074Z,52.46
2018-04-23T01:22:21.323Z,52.52
2018-04-23T01:24:47.545Z,52.55
2018-04-23T01:27:13.970Z,52.62
2018-04-23T01:29:40.197Z,52.60
2018-04-23T01:32:06.380Z,52.74
2018-04-23T01:34:32.600Z,52.77
2018-04-23T01:36:58.984Z,52.76
2018-04-23T01:39:25.304Z,52.69
2018-04-23T01:41:51.654Z,52.86
2018-04-23T01:44:17.854Z,52.89
2018-04-23T01:46:44.405Z,52.89
2018-04-23T01:49:10.704Z,52.88
2018-04-23T01:51:36.899Z,52.98
2018-04-23T01:54:03.136Z,53.04
2018-04-23T01:56:29.649Z,52.96
2018-04-23T01:58:56.179Z,52.98
2018-04-23T02:01:22.766Z,53.03
2018-04-23T02:03:48.973Z,53.04
2018-04-23T02:06:15.266Z,53.13
2018-04-23T02:08:41.471Z,53.00
2018-04-23T02:11:07.703Z,52.81
2018-04-23T02:13:33.962Z,52.72
2018-04-23T02:16:00.289Z,52.68
2018-04-23T02:18:26.519Z,52.60
2018-04-23T02:20:52.752Z,52.54
2018-04-23T02:23:19.030Z,52.54
2018-04-23T02:25:45.485Z,52.50
2018-04-23T02:28:11.656Z,52.60
2018-04-23T02:30:37.967Z,52.83
2018-04-23T02:33:04.159Z,53.05
2018-04-23T02:35:30.389Z,52.96
2018-04-23T02:37:56.583Z,52.96
2018-04-23T02:40:22.945Z,53.01
2018-04-23T02:42:49.163Z,53.03
2018-04-23T02:45:15.348Z,53.06
2018-04-23T02:47:41.661Z,52.96
2018-04-23T02:50:07.888Z,52.81
2018-04-23T02:52:34.561Z,52.84
2018-04-23T02:55:00.802Z,52.73
2018-04-23T02:57:26.967Z,52.75
2018-04-23T02:59:53.319Z,52.70
2018-04-23T03:02:19.502Z,52.78
2018-04-23T03:04:45.705Z,52.88
2018-04-23T03:07:12.249Z,52.83
2018-04-23T03:09:38.473Z,52.88
2018-04-23T03:12:04.739Z,53.02
2018-04-23T03:14:31.099Z,52.97
2018-04-23T03:16:57.254Z,53.09
2018-04-23T03:19:23.499Z,53.18
2018-04-23T03:21:49.698Z,53.06
2018-04-23T03:24:15.879Z,52.88
2018-04-23T03:26:42.251Z,52.79
2018-04-23T03:29:08.462Z,52.78
2018-04-23T03:31:34.677Z,52.69
2018-04-23T03:34:01.206Z,52.76
2018-04-23T03:36:27.462Z,52.69
2018-04-23T03:38:53.660Z,52.71
2018-04-23T03:41:19.986Z,52.66
2018-04-23T03:43:46.209Z,52.68
2018-04-23T03:46:12.364Z,52.60
2018-04-23T03:48:38.830Z,52.59
2018-04-23T03:51:05.312Z,52.58
2018-04-23T03:53:31.603Z,52.63
2018-04-23T03:55:57.868Z,52.99
2018-04-23T03:58:24.099Z,52.94
2018-04-23T04:00:50.406Z,52.78
2018-04-23T04:03:16.559Z,52.77
2018-04-23T04:05:42.788Z,52.73
2018-04-23T04:08:08.964Z,52.71
2018-04-23T04:10:35.463Z,52.62
2018-04-23T04:13:14.447Z,52.63
2018-04-23T04:15:52.905Z,52.84
2018-04-23T04:18:40.123Z,52.60
2018-04-23T04:21:06.401Z,52.60
2018-04-23T04:23:32.675Z,52.59
2018-04-23T04:25:59.048Z,52.63
2018-04-23T04:28:26.282Z,52.64
2018-04-23T04:30:52.959Z,52.76
2018-04-23T04:33:19.175Z,52.63
2018-04-23T04:35:45.425Z,52.53
2018-04-23T04:38:11.906Z,52.74
2018-04-23T04:40:38.129Z,52.25
2018-04-23T04:43:04.357Z,51.98
2018-04-23T04:45:30.515Z,51.81
2018-04-23T04:47:56.774Z,51.69
2018-04-23T04:50:23.065Z,51.51
2018-04-23T04:52:49.253Z,51.49
2018-04-23T04:55:15.482Z,51.43
2018-04-23T04:57:42.009Z,51.78
2018-04-23T05:00:08.264Z,51.96
2018-04-23T05:02:34.497Z,51.80
2018-04-23T05:05:00.830Z,51.79
2018-04-23T05:07:27.108Z,51.68
2018-04-23T05:09:53.347Z,51.48
2018-04-23T05:12:19.516Z,51.28
2018-04-23T05:14:45.792Z,51.12
2018-04-23T05:17:12.037Z,51.04
2018-04-23T05:19:38.247Z,51.17
2018-04-23T05:22:04.418Z,50.99
2018-04-23T05:24:30.670Z,51.05
2018-04-23T05:26:56.869Z,51.06
2018-04-23T05:29:23.071Z,51.02
2018-04-23T05:31:49.334Z,51.16
2018-04-23T05:34:15.562Z,51.23
2018-04-23T05:36:42.178Z,51.00
2018-04-23T05:39:08.437Z,50.84
2018-04-23T05:41:34.701Z,50.89
2018-04-23T05:44:00.986Z,50.93
2018-04-23T05:46:27.248Z,50.77
2018-04-23T05:48:53.513Z,50.83
2018-04-23T05:51:20.053Z,50.92
2018-04-23T05:53:46.316Z,51.08
2018-04-23T05:56:12.591Z,51.30
2018-04-23T05:58:39.090Z,50.92
2018-04-23T06:01:05.445Z,50.96
2018-04-23T06:03:31.916Z,50.86
2018-04-23T06:05:58.194Z,50.86
2018-04-23T06:08:24.422Z,50.77
2018-04-23T06:10:50.688Z,50.73
2018-04-23T06:13:16.967Z,50.59
2018-04-23T06:15:43.326Z,50.59
2018-04-23T06:18:09.574Z,50.54
2018-04-23T06:20:36.022Z,50.45
2018-04-23T06:23:02.239Z,50.40
2018-04-23T06:25:28.529Z,50.33
2018-04-23T06:27:54.794Z,50.28
2018-04-23T06:30:20.998Z,50.22
2018-04-23T06:32:47.334Z,50.21
2018-04-23T06:35:13.618Z,50.18
2018-04-23T06:37:39.938Z,50.11
2018-04-23T06:40:06.174Z,50.04
2018-04-23T06:42:32.472Z,49.96
2018-04-23T06:44:58.647Z,49.85
2018-04-23T06:47:24.857Z,49.83
2018-04-23T06:49:51.093Z,49.77
2018-04-23T06:52:17.285Z,49.73
2018-04-23T06:54:43.507Z,49.67
2018-04-23T06:57:10.132Z,49.71
2018-04-23T06:59:36.495Z,49.74
2018-04-23T07:02:02.742Z,49.58
2018-04-23T07:04:29.255Z,49.54
2018-04-23T07:06:55.452Z,49.48
2018-04-23T07:09:21.710Z,49.46
2018-04-23T07:11:48.202Z,49.55
2018-04-23T07:14:14.376Z,49.58
2018-04-23T07:16:40.664Z,49.60
2018-04-23T07:19:06.852Z,49.54
2018-04-23T07:21:33.078Z,49.42
2018-04-23T07:23:59.322Z,49.40
2018-04-23T07:26:25.824Z,49.45
2018-04-23T07:28:52.084Z,49.54
2018-04-23T07:31:18.567Z,49.61
2018-04-23T07:33:44.908Z,49.57
2018-04-23T07:36:11.356Z,49.47
2018-04-23T07:38:37.598Z,49.42
2018-04-23T07:41:03.806Z,49.38
2018-04-23T07:43:30.154Z,49.38
2018-04-23T07:45:56.347Z,49.39
2018-04-23T07:48:22.528Z,49.38
2018-04-23T07:50:48.750Z,49.39
2018-04-23T07:53:15.254Z,49.37
2018-04-23T07:55:41.428Z,49.43
2018-04-23T07:58:07.746Z,49.41
2018-04-23T08:00:33.972Z,49.32
2018-04-23T08:03:00.259Z,49.32
2018-04-23T08:05:26.961Z,49.32
2018-04-23T08:07:53.567Z,49.31
2018-04-23T08:10:19.771Z,49.31
2018-04-23T08:12:46.226Z,49.32
2018-04-23T08:15:12.465Z,49.41
2018-04-23T08:17:38.727Z,49.43
2018-04-23T08:20:05.026Z,49.40
2018-04-23T08:22:31.303Z,49.45
2018-04-23T08:24:57.489Z,49.34
2018-04-23T08:27:23.717Z,49.24
2018-04-23T08:29:50.069Z,49.26
2018-04-23T08:32:16.318Z,49.25
2018-04-23T08:34:42.579Z,49.33
2018-04-23T08:37:08.923Z,49.33
2018-04-23T08:39:35.270Z,49.35
2018-04-23T08:42:01.485Z,49.34
2018-04-23T08:44:27.719Z,49.33
2018-04-23T08:46:53.892Z,49.31
2018-04-23T08:49:20.330Z,49.30
2018-04-23T08:51:46.590Z,49.28
2018-04-23T08:54:13.227Z,49.25
2018-04-23T08:56:39.486Z,49.21
2018-04-23T08:59:05.771Z,49.14
2018-04-23T09:01:32.092Z,49.00
2018-04-23T09:03:58.326Z,48.89
2018-04-23T09:06:24.642Z,48.79
2018-04-23T09:08:50.848Z,48.68
2018-04-23T09:11:17.434Z,48.47
2018-04-23T09:13:44.630Z,48.42
2018-04-23T09:16:10.820Z,48.40
2018-04-23T09:18:37.086Z,48.21
2018-04-23T09:21:03.595Z,48.01
2018-04-23T09:23:29.925Z,47.87
2018-04-23T09:25:56.132Z,47.82
2018-04-23T09:28:22.386Z,47.87
2018-04-23T09:30:48.639Z,47.97
2018-04-23T09:33:15.050Z,47.89
2018-04-23T09:35:41.388Z,47.82
2018-04-23T09:38:07.996Z,47.73
2018-04-23T09:40:34.288Z,47.78
2018-04-23T09:43:00.852Z,47.82
2018-04-23T09:45:27.097Z,47.85
2018-04-23T09:47:53.526Z,47.80
2018-04-23T09:50:19.745Z,47.56
2018-04-23T09:52:45.954Z,47.38
2018-04-23T09:55:12.250Z,47.10
2018-04-23T09:57:38.542Z,47.09
2018-04-23T10:00:04.722Z,47.07
2018-04-23T10:02:31.351Z,47.04
2018-04-23T10:04:57.515Z,46.96
2018-04-23T10:07:23.883Z,46.94
2018-04-23T10:09:50.162Z,46.83
2018-04-23T10:12:16.334Z,46.50
2018-04-23T10:14:42.720Z,46.43
2018-04-23T10:17:08.947Z,46.38
2018-04-23T10:19:35.992Z,46.19
2018-04-23T10:22:08.923Z,46.25
2018-04-23T10:24:36.358Z,46.11
2018-04-23T10:27:02.615Z,45.72
2018-04-23T10:29:29.084Z,45.56
2018-04-23T10:31:55.287Z,45.45
2018-04-23T10:34:21.597Z,45.20
2018-04-23T10:36:49.009Z,45.13
2018-04-23T10:39:15.387Z,45.06
2018-04-23T10:41:41.994Z,45.07
2018-04-23T10:44:08.317Z,45.01
2018-04-23T10:46:34.632Z,44.95
2018-04-23T10:49:01.168Z,44.94
2018-04-23T10:51:27.886Z,45.12
2018-04-23T10:53:54.426Z,45.37
2018-04-23T10:56:20.726Z,45.55
2018-04-23T10:58:47.348Z,45.41
2018-04-23T11:01:13.644Z,45.33
2018-04-23T11:03:39.820Z,45.25
2018-04-23T11:06:06.036Z,44.68
2018-04-23T11:08:32.294Z,44.67
2018-04-23T11:10:58.668Z,44.41
2018-04-23T11:13:24.873Z,44.01
2018-04-23T11:15:51.190Z,43.81
2018-04-23T11:18:17.395Z,43.92
2018-04-23T11:20:43.606Z,43.65
2018-04-23T11:23:09.848Z,43.17
2018-04-23T11:25:36.023Z,42.84
2018-04-23T11:28:02.204Z,42.86
2018-04-23T11:30:28.403Z,42.71
2018-04-23T11:32:54.933Z,42.79
2018-04-23T11:35:21.196Z,42.82
2018-04-23T11:37:47.726Z,42.70
2018-04-23T11:40:14.129Z,42.64
2018-04-23T11:42:40.490Z,42.45
2018-04-23T11:45:06.696Z,42.07
2018-04-23T11:47:32.880Z,42.09
2018-04-23T11:49:59.516Z,42.18
2018-04-23T11:52:25.677Z,42.11
2018-04-23T11:54:51.903Z,41.78
2018-04-23T11:57:18.230Z,41.67
2018-04-23T11:59:44.421Z,41.58
2018-04-23T12:02:10.660Z,41.60
2018-04-23T12:04:37.009Z,41.76
2018-04-23T12:07:03.248Z,41.87
2018-04-23T12:09:29.431Z,42.00
2018-04-23T12:11:55.618Z,41.87
2018-04-23T12:14:21.822Z,41.76
2018-04-23T12:16:48.027Z,41.71
2018-04-23T12:19:14.205Z,41.91
2018-04-23T12:21:40.429Z,41.84
2018-04-23T12:24:07.058Z,41.75
2018-04-23T12:26:33.260Z,41.70
2018-04-23T12:28:59.501Z,41.68
2018-04-23T12:31:25.792Z,41.66
2018-04-23T12:33:52.278Z,41.55
2018-04-23T12:36:18.494Z,41.40
2018-04-23T12:38:44.738Z,41.23
2018-04-23T12:41:10.977Z,41.18
2018-04-23T12:43:37.292Z,41.42
2018-04-23T12:46:03.977Z,41.52
2018-04-23T12:48:30.211Z,41.49
2018-04-23T12:50:56.545Z,41.42
2018-04-23T12:53:22.713Z,41.59
2018-04-23T12:55:48.963Z,41.55
2018-04-23T12:58:15.633Z,41.47
2018-04-23T13:00:41.868Z,41.51
2018-04-23T13:03:08.047Z,41.66
2018-04-23T13:05:34.351Z,41.61
2018-04-23T13:08:00.590Z,41.71
2018-04-23T13:10:27.266Z,41.63
2018-04-23T13:12:53.525Z,41.44
2018-04-23T13:15:19.807Z,41.40
2018-04-23T13:17:47.014Z,41.54
2018-04-23T13:20:13.234Z,41.46
2018-04-23T13:22:39.560Z,41.36
2018-04-23T13:25:05.748Z,41.42
2018-04-23T13:27:31.933Z,41.34
2018-04-23T13:29:58.150Z,41.29
2018-04-23T13:32:24.540Z,41.28
2018-04-23T13:34:51.126Z,41.27
2018-04-23T13:37:17.315Z,41.33
2018-04-23T13:39:43.590Z,41.36
2018-04-23T13:42:09.862Z,41.26
2018-04-23T13:44:36.371Z,41.23
2018-04-23T13:47:02.607Z,41.13
2018-04-23T13:49:29.235Z,41.18
2018-04-23T13:51:55.465Z,41.19
2018-04-23T13:54:21.693Z,41.03
2018-04-23T13:56:48.330Z,40.83
2018-04-23T13:59:14.523Z,41.00
2018-04-23T14:01:40.820Z,40.93
2018-04-23T14:04:07.074Z,40.84
2018-04-23T14:06:33.494Z,41.06
2018-04-23T14:08:59.695Z,41.04
2018-04-23T14:11:27.229Z,40.94
2018-04-23T14:13:53.476Z,40.88
2018-04-23T14:16:19.798Z,40.89
2018-04-23T14:18:45.966Z,40.76
2018-04-23T14:21:12.135Z,40.39
2018-04-23T14:23:38.805Z,40.24
2018-04-23T14:26:05.047Z,39.87
2018-04-23T14:28:31.214Z,38.96
2018-04-23T14:30:57.441Z,36.44
2018-04-23T14:33:23.664Z,34.57
2018-04-23T14:35:50.055Z,34.83
2018-04-23T14:38:16.235Z,35.43
2018-04-23T14:40:42.384Z,36.89
2018-04-23T14:43:09.224Z,38.45
2018-04-23T14:45:35.405Z,39.63
2018-04-23T14:48:01.654Z,40.19
2018-04-23T14:50:27.858Z,38.20
2018-04-23T14:52:54.138Z,34.64
2018-04-23T14:55:20.391Z,32.57
2018-04-23T14:57:46.583Z,33.80
2018-04-23T15:00:12.781Z,33.84
2018-04-23T15:02:39.349Z,33.18
2018-04-23T15:05:05.618Z,32.32
2018-04-23T15:07:31.792Z,31.24
2018-04-23T15:09:58.013Z,30.32
2018-04-23T15:12:24.505Z,29.99
2018-04-23T15:14:50.703Z,29.63
2018-04-23T15:17:16.870Z,29.55
2018-04-23T15:19:43.483Z,29.37
2018-04-23T15:22:09.758Z,29.29
2018-04-23T15:24:35.951Z,29.11
2018-04-23T15:27:02.623Z,29.23
2018-04-23T15:29:28.785Z,29.45
2018-04-23T15:31:54.983Z,29.66
2018-04-23T15:34:21.656Z,30.23
2018-04-23T15:36:48.201Z,30.77
2018-04-23T15:39:14.361Z,31.87
2018-04-23T15:41:40.637Z,32.79
2018-04-23T15:44:06.895Z,33.54
2018-04-23T15:46:33.411Z,34.08
2018-04-23T15:48:59.631Z,34.13
2018-04-23T15:51:25.846Z,34.77
2018-04-23T15:53:52.014Z,35.69
2018-04-23T15:56:18.215Z,36.92
2018-04-23T15:58:44.526Z,37.51
2018-04-23T16:01:10.731Z,37.40
2018-04-23T16:03:44.022Z,36.84
2018-04-23T16:06:10.195Z,36.61
2018-04-23T16:08:36.393Z,36.51
2018-04-23T16:11:02.581Z,36.56
2018-04-23T16:13:29.201Z,36.22
2018-04-23T16:15:55.414Z,36.12
2018-04-23T16:18:21.591Z,36.34
2018-04-23T16:20:47.810Z,37.07
2018-04-23T16:23:13.979Z,37.77
2018-04-23T16:25:40.187Z,37.76
2018-04-23T16:28:06.426Z,37.90
2018-04-23T16:30:32.667Z,38.06
2018-04-23T16:32:58.866Z,38.13
2018-04-23T16:35:25.174Z,37.65
2018-04-23T16:37:51.838Z,37.25
2018-04-23T16:40:18.027Z,37.88
2018-04-23T16:42:44.280Z,38.23
2018-04-23T16:45:10.700Z,38.51
2018-04-23T16:47:36.994Z,38.74
2018-04-23T16:50:03.256Z,38.92
2018-04-23T16:52:29.439Z,39.14
2018-04-23T16:54:55.658Z,39.40
2018-04-23T16:57:21.917Z,39.55
2018-04-23T16:59:48.221Z,39.23
2018-04-23T17:02:14.530Z,38.97
2018-04-23T17:04:40.780Z,38.95
2018-04-23T17:07:06.986Z,39.21
2018-04-23T17:09:33.209Z,39.47
2018-04-23T17:11:59.405Z,39.80
2018-04-23T17:14:25.632Z,40.03
2018-04-23T17:16:51.893Z,39.59
2018-04-23T17:19:18.076Z,39.13
2018-04-23T17:21:44.253Z,39.02
2018-04-23T17:24:10.825Z,39.15
2018-04-23T17:26:37.011Z,39.56
2018-04-23T17:29:03.174Z,40.31
2018-04-23T17:31:29.462Z,40.38
2018-04-23T17:33:55.786Z,40.33
2018-04-23T17:36:22.035Z,40.22
2018-04-23T17:38:48.570Z,40.13
2018-04-23T17:41:15.315Z,40.09
2018-04-23T17:43:43.879Z,40.05
2018-04-23T17:46:10.121Z,40.15
2018-04-23T17:48:36.699Z,40.47
2018-04-23T17:51:02.893Z,40.70
2018-04-23T17:53:29.080Z,40.97
2018-04-23T17:55:55.688Z,41.16
2018-04-23T17:58:21.894Z,41.30
2018-04-23T18:00:48.084Z,41.42
2018-04-23T18:03:14.293Z,41.71
2018-04-23T18:05:40.634Z,41.86
2018-04-23T18:08:07.238Z,42.15
2018-04-23T18:10:33.413Z,42.31
2018-04-23T18:12:59.642Z,42.54
2018-04-23T18:15:25.960Z,42.57
2018-04-23T18:17:52.170Z,42.83
2018-04-23T18:20:18.333Z,42.92
2018-04-23T18:22:44.517Z,43.33
2018-04-23T18:25:10.732Z,43.57
2018-04-23T18:27:37.038Z,43.72
2018-04-23T18:30:03.616Z,43.78
2018-04-23T18:32:29.808Z,44.10
2018-04-23T18:34:56.502Z,44.24
2018-04-23T18:37:22.696Z,44.35
2018-04-23T18:39:49.876Z,44.44
2018-04-23T18:42:16.210Z,44.69
2018-04-23T18:44:42.532Z,44.67
2018-04-23T18:47:08.716Z,44.72
2018-04-23T18:49:35.272Z,44.84
2018-04-23T18:52:01.499Z,44.99
2018-04-23T18:54:27.750Z,45.13
2018-04-23T18:56:53.967Z,45.18
2018-04-23T18:59:20.307Z,45.32
2018-04-23T19:01:46.584Z,45.41
2018-04-23T19:04:12.790Z,45.54
2018-04-23T19:06:38.964Z,45.64
2018-04-23T19:09:05.310Z,45.76
2018-04-23T19:11:31.496Z,45.96
2018-04-23T19:13:57.738Z,46.01
2018-04-23T19:16:24.146Z,46.09
2018-04-23T19:18:50.366Z,46.12
2018-04-23T19:21:16.563Z,46.16
2018-04-23T19:23:42.754Z,46.35
2018-04-23T19:26:09.097Z,46.26
2018-04-23T19:28:35.276Z,46.38
2018-04-23T19:31:01.757Z,46.38
2018-04-23T19:33:27.990Z,46.43
2018-04-23T19:35:55.871Z,46.47
2018-04-23T19:38:22.154Z,46.73
2018-04-23T19:40:48.363Z,46.74
2018-04-23T19:43:14.628Z,46.77
2018-04-23T19:45:41.012Z,46.81
2018-04-23T19:48:07.216Z,46.86
2018-04-23T19:50:33.433Z,46.93
2018-04-23T19:52:59.650Z,47.03
2018-04-23T19:55:25.882Z,47.06
2018-04-23T19:57:52.167Z,47.13
2018-04-23T20:00:18.441Z,47.11
2018-04-23T20:02:44.976Z,47.11
2018-04-23T20:05:11.186Z,47.15
2018-04-23T20:07:37.659Z,47.23
2018-04-23T20:10:04.583Z,47.40
2018-04-23T20:12:30.863Z,47.59
2018-04-23T20:14:57.177Z,47.71
2018-04-23T20:17:23.368Z,47.77
2018-04-23T20:19:49.647Z,47.82
2018-04-23T20:22:15.848Z,47.86
2018-04-23T20:24:42.091Z,48.01
2018-04-23T20:27:08.645Z,48.10
2018-04-23T20:29:35.124Z,48.09
2018-04-23T20:32:01.389Z,48.12
2018-04-23T20:34:27.941Z,48.15
2018-04-23T20:36:54.187Z,48.20
2018-04-23T20:39:20.373Z,48.12
2018-04-23T20:41:46.575Z,48.09
2018-04-23T20:44:12.770Z,48.09
2018-04-23T20:46:39.502Z,48.14
2018-04-23T20:49:05.681Z,48.15
2018-04-23T20:51:31.860Z,48.19
2018-04-23T20:53:58.139Z,48.30
2018-04-23T20:56:24.365Z,48.33
2018-04-23T20:58:50.748Z,48.41
2018-04-23T21:01:17.114Z,48.48
2018-04-23T21:03:43.322Z,48.61
2018-04-23T21:06:09.569Z,48.62
2018-04-23T21:08:35.788Z,48.76
2018-04-23T21:11:02.063Z,48.58
2018-04-23T21:13:28.244Z,48.49
2018-04-23T21:15:54.442Z,48.50
2018-04-23T21:18:21.016Z,48.58
2018-04-23T21:20:47.330Z,48.50
2018-04-23T21:23:13.626Z,48.49
2018-04-23T21:25:39.849Z,48.56
2018-04-23T21:28:06.492Z,48.52
2018-04-23T21:30:32.682Z,48.81
2018-04-23T21:32:58.946Z,48.85
2018-04-23T21:35:25.622Z,48.83
2018-04-23T21:37:51.872Z,48.94
2018-04-23T21:40:18.182Z,48.96
2018-04-23T21:42:44.419Z,49.17
2018-04-23T21:45:10.927Z,49.20
2018-04-23T21:47:37.550Z,49.32
2018-04-23T21:50:03.741Z,49.44
2018-04-23T21:52:30.330Z,49.32
2018-04-23T21:54:56.795Z,49.36
2018-04-23T21:57:23.045Z,49.39
2018-04-23T21:59:49.686Z,49.33
2018-04-23T22:02:16.054Z,49.25
2018-04-23T22:04:42.220Z,49.12
2018-04-23T22:07:08.853Z,49.16
2018-04-23T22:09:35.028Z,48.95
2018-04-23T22:12:01.547Z,48.82
2018-04-23T22:14:27.723Z,48.67
2018-04-23T22:16:54.091Z,48.48
2018-04-23T22:19:20.360Z,48.32
2018-04-23T22:21:46.547Z,48.29
2018-04-23T22:24:12.837Z,48.12
2018-04-23T22:26:39.028Z,47.93
2018-04-23T22:29:05.233Z,47.81
2018-04-23T22:31:31.510Z,47.70
2018-04-23T22:33:58.083Z,47.77
2018-04-23T22:36:24.352Z,47.92
2018-04-23T22:38:50.705Z,47.94
2018-04-23T22:41:17.235Z,47.96
2018-04-23T22:43:43.538Z,47.89
2018-04-23T22:46:09.768Z,47.84
2018-04-23T22:48:36.173Z,47.75
2018-04-23T22:51:02.527Z,47.48
2018-04-23T22:53:28.962Z,47.39
2018-04-23T22:55:55.286Z,47.46
2018-04-23T22:58:21.531Z,47.54
2018-04-23T23:00:47.908Z,47.56
2018-04-23T23:03:14.459Z,47.54
2018-04-23T23:05:40.994Z,47.48
2018-04-23T23:08:07.520Z,47.43
2018-04-23T23:10:33.760Z,47.39
2018-04-23T23:13:00.292Z,47.34
2018-04-23T23:15:26.558Z,47.29
2018-04-23T23:17:53.057Z,47.23
2018-04-23T23:20:19.522Z,47.16
2018-04-23T23:22:46.069Z,47.09
2018-04-23T23:25:12.319Z,47.02
2018-04-23T23:27:38.791Z,46.91
2018-04-23T23:30:05.126Z,46.93
2018-04-23T23:32:31.302Z,46.93
2018-04-23T23:34:57.539Z,46.95
2018-04-23T23:37:23.836Z,46.91
2018-04-23T23:39:50.086Z,46.85
2018-04-23T23:42:16.367Z,46.80
2018-04-23T23:44:42.558Z,46.74
2018-04-23T23:47:08.827Z,46.74
2018-04-23T23:49:35.150Z,46.67
2018-04-23T23:52:01.429Z,46.66
2018-04-23T23:54:27.720Z,46.62
2018-04-23T23:56:53.982Z,46.59
2018-04-23T23:59:20.266Z,46.56
